sensor_id;sensor_type;location;lat;lon;timestamp;temperature;humidity
16134;DHT22;8172;45.018;5.972;2022-07-29T00:03:12;21.00;49.60
16134;DHT22;8172;45.018;5.972;2022-07-29T00:08:19;20.90;49.80
16134;DHT22;8172;45.018;5.972;2022-07-29T00:13:28;20.90;49.80
16134;DHT22;8172;45.018;5.972;2022-07-29T00:18:37;20.90;49.80
16134;DHT22;8172;45.018;5.972;2022-07-29T00:23:45;20.80;50.00
16134;DHT22;8172;45.018;5.972;2022-07-29T00:28:52;20.70;50.20
16134;DHT22;8172;45.018;5.972;2022-07-29T00:34:00;20.70;50.20
16134;DHT22;8172;45.018;5.972;2022-07-29T00:39:08;20.70;50.20
16134;DHT22;8172;45.018;5.972;2022-07-29T00:44:15;20.70;50.40
16134;DHT22;8172;45.018;5.972;2022-07-29T00:49:22;20.70;50.50
16134;DHT22;8172;45.018;5.972;2022-07-29T00:54:30;20.70;50.60
16134;DHT22;8172;45.018;5.972;2022-07-29T00:59:37;20.70;50.60
16134;DHT22;8172;45.018;5.972;2022-07-29T01:04:44;20.70;50.70
16134;DHT22;8172;45.018;5.972;2022-07-29T01:09:53;20.70;50.90
16134;DHT22;8172;45.018;5.972;2022-07-29T01:15:03;20.70;50.90
16134;DHT22;8172;45.018;5.972;2022-07-29T01:30:33;20.80;51.00
16134;DHT22;8172;45.018;5.972;2022-07-29T01:35:43;20.70;51.00
16134;DHT22;8172;45.018;5.972;2022-07-29T01:40:53;20.80;51.10
16134;DHT22;8172;45.018;5.972;2022-07-29T01:46:04;20.70;51.10
16134;DHT22;8172;45.018;5.972;2022-07-29T01:56:23;20.70;51.20
16134;DHT22;8172;45.018;5.972;2022-07-29T02:01:33;20.60;51.20
16134;DHT22;8172;45.018;5.972;2022-07-29T02:06:42;20.60;51.30
16134;DHT22;8172;45.018;5.972;2022-07-29T02:11:53;20.60;51.40
16134;DHT22;8172;45.018;5.972;2022-07-29T02:17:02;20.50;51.30
16134;DHT22;8172;45.018;5.972;2022-07-29T02:22:10;20.50;51.40
16134;DHT22;8172;45.018;5.972;2022-07-29T02:27:19;20.50;51.50
16134;DHT22;8172;45.018;5.972;2022-07-29T02:32:28;20.40;51.60
16134;DHT22;8172;45.018;5.972;2022-07-29T02:37:37;20.40;51.60
16134;DHT22;8172;45.018;5.972;2022-07-29T02:42:46;20.30;51.60
16134;DHT22;8172;45.018;5.972;2022-07-29T02:47:55;20.30;51.70
16134;DHT22;8172;45.018;5.972;2022-07-29T02:53:13;20.20;51.80
16134;DHT22;8172;45.018;5.972;2022-07-29T03:03:27;20.10;51.80
16134;DHT22;8172;45.018;5.972;2022-07-29T03:08:35;20.00;52.00
16134;DHT22;8172;45.018;5.972;2022-07-29T03:13:43;20.00;52.00
16134;DHT22;8172;45.018;5.972;2022-07-29T03:18:52;19.90;52.10
16134;DHT22;8172;45.018;5.972;2022-07-29T03:24:01;19.90;52.10
16134;DHT22;8172;45.018;5.972;2022-07-29T03:29:10;19.90;52.20
16134;DHT22;8172;45.018;5.972;2022-07-29T03:34:19;19.90;52.30
16134;DHT22;8172;45.018;5.972;2022-07-29T03:39:31;19.90;52.40
16134;DHT22;8172;45.018;5.972;2022-07-29T03:44:41;19.90;52.40
16134;DHT22;8172;45.018;5.972;2022-07-29T03:49:52;19.80;52.40
16134;DHT22;8172;45.018;5.972;2022-07-29T03:55:00;19.80;52.50
16134;DHT22;8172;45.018;5.972;2022-07-29T04:00:08;19.80;52.60
16134;DHT22;8172;45.018;5.972;2022-07-29T04:05:17;19.80;52.70
16134;DHT22;8172;45.018;5.972;2022-07-29T04:10:24;19.80;52.70
16134;DHT22;8172;45.018;5.972;2022-07-29T04:15:34;19.80;52.70
16134;DHT22;8172;45.018;5.972;2022-07-29T04:20:41;19.80;53.00
16134;DHT22;8172;45.018;5.972;2022-07-29T04:25:49;19.80;52.90
16134;DHT22;8172;45.018;5.972;2022-07-29T04:30:57;19.80;53.00
16134;DHT22;8172;45.018;5.972;2022-07-29T04:36:05;19.80;53.00
16134;DHT22;8172;45.018;5.972;2022-07-29T04:41:14;19.80;53.10
16134;DHT22;8172;45.018;5.972;2022-07-29T04:46:23;19.80;53.20
16134;DHT22;8172;45.018;5.972;2022-07-29T04:51:31;19.80;53.30
16134;DHT22;8172;45.018;5.972;2022-07-29T04:56:38;19.90;53.30
16134;DHT22;8172;45.018;5.972;2022-07-29T05:01:46;19.90;53.50
16134;DHT22;8172;45.018;5.972;2022-07-29T05:06:55;19.90;53.60
16134;DHT22;8172;45.018;5.972;2022-07-29T05:12:03;19.90;53.70
16134;DHT22;8172;45.018;5.972;2022-07-29T05:17:12;19.90;54.00
16134;DHT22;8172;45.018;5.972;2022-07-29T05:22:20;20.00;54.40
16134;DHT22;8172;45.018;5.972;2022-07-29T05:27:27;20.00;54.50
16134;DHT22;8172;45.018;5.972;2022-07-29T05:32:36;20.00;54.60
16134;DHT22;8172;45.018;5.972;2022-07-29T05:37:47;20.00;54.60
16134;DHT22;8172;45.018;5.972;2022-07-29T05:42:55;20.10;54.90
16134;DHT22;8172;45.018;5.972;2022-07-29T05:48:03;20.20;54.70
16134;DHT22;8172;45.018;5.972;2022-07-29T05:53:10;20.20;55.30
16134;DHT22;8172;45.018;5.972;2022-07-29T05:58:20;20.30;55.30
16134;DHT22;8172;45.018;5.972;2022-07-29T06:03:29;20.40;55.10
16134;DHT22;8172;45.018;5.972;2022-07-29T06:08:38;20.40;55.20
16134;DHT22;8172;45.018;5.972;2022-07-29T06:13:53;20.40;55.40
16134;DHT22;8172;45.018;5.972;2022-07-29T06:19:01;20.50;55.70
16134;DHT22;8172;45.018;5.972;2022-07-29T06:24:13;20.50;55.10
16134;DHT22;8172;45.018;5.972;2022-07-29T06:29:26;20.50;55.30
16134;DHT22;8172;45.018;5.972;2022-07-29T06:34:37;20.60;55.60
16134;DHT22;8172;45.018;5.972;2022-07-29T06:39:54;20.70;55.80
16134;DHT22;8172;45.018;5.972;2022-07-29T06:45:05;20.80;55.90
16134;DHT22;8172;45.018;5.972;2022-07-29T06:50:15;20.90;55.80
16134;DHT22;8172;45.018;5.972;2022-07-29T06:55:29;20.90;55.70
16134;DHT22;8172;45.018;5.972;2022-07-29T07:00:40;21.00;55.10
16134;DHT22;8172;45.018;5.972;2022-07-29T07:06:00;21.00;54.80
16134;DHT22;8172;45.018;5.972;2022-07-29T07:11:38;21.00;55.00
16134;DHT22;8172;45.018;5.972;2022-07-29T07:16:55;21.10;55.00
16134;DHT22;8172;45.018;5.972;2022-07-29T07:22:03;21.20;54.30
16134;DHT22;8172;45.018;5.972;2022-07-29T07:27:11;21.20;55.10
16134;DHT22;8172;45.018;5.972;2022-07-29T07:32:19;21.40;55.20
16134;DHT22;8172;45.018;5.972;2022-07-29T07:37:28;21.40;54.30
16134;DHT22;8172;45.018;5.972;2022-07-29T07:42:37;21.50;53.90
16134;DHT22;8172;45.018;5.972;2022-07-29T07:47:47;21.50;53.80
16134;DHT22;8172;45.018;5.972;2022-07-29T07:52:56;21.70;54.10
16134;DHT22;8172;45.018;5.972;2022-07-29T07:58:05;21.90;53.90
16134;DHT22;8172;45.018;5.972;2022-07-29T08:03:13;22.00;53.90
16134;DHT22;8172;45.018;5.972;2022-07-29T08:08:22;22.00;53.60
16134;DHT22;8172;45.018;5.972;2022-07-29T08:13:31;22.00;53.20
16134;DHT22;8172;45.018;5.972;2022-07-29T08:18:41;22.00;53.40
16134;DHT22;8172;45.018;5.972;2022-07-29T08:23:52;22.00;53.50
16134;DHT22;8172;45.018;5.972;2022-07-29T08:29:03;22.00;53.20
16134;DHT22;8172;45.018;5.972;2022-07-29T08:34:11;22.00;53.10
16134;DHT22;8172;45.018;5.972;2022-07-29T08:39:32;22.00;53.60
16134;DHT22;8172;45.018;5.972;2022-07-29T08:45:08;22.00;53.30
16134;DHT22;8172;45.018;5.972;2022-07-29T08:50:19;21.80;53.50
16134;DHT22;8172;45.018;5.972;2022-07-29T08:55:30;21.60;53.60
16134;DHT22;8172;45.018;5.972;2022-07-29T09:00:44;21.40;53.60
16134;DHT22;8172;45.018;5.972;2022-07-29T09:06:03;21.30;54.20
16134;DHT22;8172;45.018;5.972;2022-07-29T09:11:12;21.10;56.20
16134;DHT22;8172;45.018;5.972;2022-07-29T09:16:22;20.80;57.20
16134;DHT22;8172;45.018;5.972;2022-07-29T09:21:40;20.50;58.50
16134;DHT22;8172;45.018;5.972;2022-07-29T09:26:47;20.40;59.00
16134;DHT22;8172;45.018;5.972;2022-07-29T09:32:00;20.30;59.70
16134;DHT22;8172;45.018;5.972;2022-07-29T09:37:25;20.20;60.00
16134;DHT22;8172;45.018;5.972;2022-07-29T09:42:27;20.10;60.50
16134;DHT22;8172;45.018;5.972;2022-07-29T09:52:47;19.90;61.30
16134;DHT22;8172;45.018;5.972;2022-07-29T09:58:14;19.70;62.20
16134;DHT22;8172;45.018;5.972;2022-07-29T10:03:04;19.60;62.80
16134;DHT22;8172;45.018;5.972;2022-07-29T10:08:12;19.40;63.50
16134;DHT22;8172;45.018;5.972;2022-07-29T10:13:19;19.30;64.30
16134;DHT22;8172;45.018;5.972;2022-07-29T10:18:27;19.20;65.40
16134;DHT22;8172;45.018;5.972;2022-07-29T10:23:34;19.10;65.80
16134;DHT22;8172;45.018;5.972;2022-07-29T10:28:44;19.10;66.10
16134;DHT22;8172;45.018;5.972;2022-07-29T10:33:58;19.00;65.90
16134;DHT22;8172;45.018;5.972;2022-07-29T10:44:14;18.90;65.90
16134;DHT22;8172;45.018;5.972;2022-07-29T10:49:25;19.00;66.10
16134;DHT22;8172;45.018;5.972;2022-07-29T10:59:45;19.10;67.30
16134;DHT22;8172;45.018;5.972;2022-07-29T11:15:12;19.50;67.60
16134;DHT22;8172;45.018;5.972;2022-07-29T11:25:32;19.60;67.70
16134;DHT22;8172;45.018;5.972;2022-07-29T11:46:15;19.50;68.40
16134;DHT22;8172;45.018;5.972;2022-07-29T11:51:24;19.40;68.50
16134;DHT22;8172;45.018;5.972;2022-07-29T11:56:32;19.20;68.60
16134;DHT22;8172;45.018;5.972;2022-07-29T12:06:55;19.00;69.30
16134;DHT22;8172;45.018;5.972;2022-07-29T12:12:04;18.90;69.60
16134;DHT22;8172;45.018;5.972;2022-07-29T12:27:33;18.70;70.10
16134;DHT22;8172;45.018;5.972;2022-07-29T12:37:50;18.50;71.30
16134;DHT22;8172;45.018;5.972;2022-07-29T12:43:04;18.50;71.90
16134;DHT22;8172;45.018;5.972;2022-07-29T12:48:10;18.50;72.10
16134;DHT22;8172;45.018;5.972;2022-07-29T12:53:17;18.50;72.30
16134;DHT22;8172;45.018;5.972;2022-07-29T12:58:28;18.60;72.40
16134;DHT22;8172;45.018;5.972;2022-07-29T13:13:56;18.60;72.20
16134;DHT22;8172;45.018;5.972;2022-07-29T13:19:07;18.70;72.70
16134;DHT22;8172;45.018;5.972;2022-07-29T13:24:15;18.90;73.00
16134;DHT22;8172;45.018;5.972;2022-07-29T13:29:23;19.30;73.30
16134;DHT22;8172;45.018;5.972;2022-07-29T13:34:34;19.50;73.50
16134;DHT22;8172;45.018;5.972;2022-07-29T13:39:41;19.80;72.70
16134;DHT22;8172;45.018;5.972;2022-07-29T13:44:50;20.10;72.50
16134;DHT22;8172;45.018;5.972;2022-07-29T13:49:57;20.30;71.80
16134;DHT22;8172;45.018;5.972;2022-07-29T13:55:05;20.50;72.00
16134;DHT22;8172;45.018;5.972;2022-07-29T14:00:13;20.70;71.20
16134;DHT22;8172;45.018;5.972;2022-07-29T14:05:21;21.00;70.70
16134;DHT22;8172;45.018;5.972;2022-07-29T14:10:28;21.20;70.10
16134;DHT22;8172;45.018;5.972;2022-07-29T14:15:35;21.40;69.40
16134;DHT22;8172;45.018;5.972;2022-07-29T14:20:44;21.30;68.40
16134;DHT22;8172;45.018;5.972;2022-07-29T14:25:51;21.20;68.40
16134;DHT22;8172;45.018;5.972;2022-07-29T14:30:58;21.30;68.40
16134;DHT22;8172;45.018;5.972;2022-07-29T14:36:05;21.40;68.50
16134;DHT22;8172;45.018;5.972;2022-07-29T14:41:12;21.70;68.40
16134;DHT22;8172;45.018;5.972;2022-07-29T14:46:19;21.90;68.40
16134;DHT22;8172;45.018;5.972;2022-07-29T14:51:27;22.10;68.50
16134;DHT22;8172;45.018;5.972;2022-07-29T14:56:36;22.30;67.70
16134;DHT22;8172;45.018;5.972;2022-07-29T15:01:45;22.50;67.60
16134;DHT22;8172;45.018;5.972;2022-07-29T15:06:52;22.50;67.30
16134;DHT22;8172;45.018;5.972;2022-07-29T15:12:01;22.70;66.30
16134;DHT22;8172;45.018;5.972;2022-07-29T15:17:09;22.80;66.20
16134;DHT22;8172;45.018;5.972;2022-07-29T15:22:17;22.70;66.30
16134;DHT22;8172;45.018;5.972;2022-07-29T15:27:25;22.70;64.60
16134;DHT22;8172;45.018;5.972;2022-07-29T15:32:32;22.60;64.00
16134;DHT22;8172;45.018;5.972;2022-07-29T15:37:40;22.40;64.50
16134;DHT22;8172;45.018;5.972;2022-07-29T15:42:49;22.40;64.50
16134;DHT22;8172;45.018;5.972;2022-07-29T15:47:56;22.40;63.90
16134;DHT22;8172;45.018;5.972;2022-07-29T15:53:03;22.30;64.20
16134;DHT22;8172;45.018;5.972;2022-07-29T15:58:10;22.40;63.30
16134;DHT22;8172;45.018;5.972;2022-07-29T16:03:17;22.40;64.30
16134;DHT22;8172;45.018;5.972;2022-07-29T16:08:26;22.40;64.40
16134;DHT22;8172;45.018;5.972;2022-07-29T16:13:33;22.50;63.90
16134;DHT22;8172;45.018;5.972;2022-07-29T16:18:41;22.40;63.90
16134;DHT22;8172;45.018;5.972;2022-07-29T16:23:48;22.20;63.90
16134;DHT22;8172;45.018;5.972;2022-07-29T16:28:55;22.00;64.50
16134;DHT22;8172;45.018;5.972;2022-07-29T16:34:02;21.80;64.80
16134;DHT22;8172;45.018;5.972;2022-07-29T16:39:10;21.70;64.80
16134;DHT22;8172;45.018;5.972;2022-07-29T16:44:17;21.50;65.00
16134;DHT22;8172;45.018;5.972;2022-07-29T16:49:27;21.50;65.30
16134;DHT22;8172;45.018;5.972;2022-07-29T16:54:34;21.40;65.20
16134;DHT22;8172;45.018;5.972;2022-07-29T16:59:41;21.40;65.50
16134;DHT22;8172;45.018;5.972;2022-07-29T17:04:48;21.40;65.70
16134;DHT22;8172;45.018;5.972;2022-07-29T17:09:55;21.30;65.70
16134;DHT22;8172;45.018;5.972;2022-07-29T17:15:06;21.20;66.10
16134;DHT22;8172;45.018;5.972;2022-07-29T17:20:13;21.10;65.90
16134;DHT22;8172;45.018;5.972;2022-07-29T17:25:22;21.00;66.50
16134;DHT22;8172;45.018;5.972;2022-07-29T17:30:29;21.00;66.70
16134;DHT22;8172;45.018;5.972;2022-07-29T17:35:36;20.90;66.40
16134;DHT22;8172;45.018;5.972;2022-07-29T17:40:45;20.80;66.30
16134;DHT22;8172;45.018;5.972;2022-07-29T17:45:53;20.80;66.40
16134;DHT22;8172;45.018;5.972;2022-07-29T17:51:02;20.70;66.50
16134;DHT22;8172;45.018;5.972;2022-07-29T17:56:10;20.60;66.60
16134;DHT22;8172;45.018;5.972;2022-07-29T18:01:18;20.50;66.80
16134;DHT22;8172;45.018;5.972;2022-07-29T18:06:26;20.40;66.90
16134;DHT22;8172;45.018;5.972;2022-07-29T18:11:33;20.30;67.00
16134;DHT22;8172;45.018;5.972;2022-07-29T18:16:40;20.30;67.10
16134;DHT22;8172;45.018;5.972;2022-07-29T18:21:47;20.20;67.20
16134;DHT22;8172;45.018;5.972;2022-07-29T18:26:56;20.10;67.30
16134;DHT22;8172;45.018;5.972;2022-07-29T18:32:04;20.10;67.50
16134;DHT22;8172;45.018;5.972;2022-07-29T18:37:11;20.10;67.70
16134;DHT22;8172;45.018;5.972;2022-07-29T18:42:18;20.00;67.90
16134;DHT22;8172;45.018;5.972;2022-07-29T18:47:25;20.00;68.20
16134;DHT22;8172;45.018;5.972;2022-07-29T18:52:33;20.00;68.50
16134;DHT22;8172;45.018;5.972;2022-07-29T18:57:41;20.00;68.70
16134;DHT22;8172;45.018;5.972;2022-07-29T19:02:50;19.90;68.70
16134;DHT22;8172;45.018;5.972;2022-07-29T19:07:57;19.90;68.90
16134;DHT22;8172;45.018;5.972;2022-07-29T19:13:05;19.90;69.10
16134;DHT22;8172;45.018;5.972;2022-07-29T19:18:13;19.90;69.30
16134;DHT22;8172;45.018;5.972;2022-07-29T19:23:20;19.80;69.30
16134;DHT22;8172;45.018;5.972;2022-07-29T19:28:28;19.80;69.50
16134;DHT22;8172;45.018;5.972;2022-07-29T19:33:35;19.80;69.30
16134;DHT22;8172;45.018;5.972;2022-07-29T19:38:43;19.80;69.50
16134;DHT22;8172;45.018;5.972;2022-07-29T19:43:51;19.80;69.70
16134;DHT22;8172;45.018;5.972;2022-07-29T19:48:59;19.80;69.70
16134;DHT22;8172;45.018;5.972;2022-07-29T19:54:17;19.70;69.60
16134;DHT22;8172;45.018;5.972;2022-07-29T19:59:29;19.70;69.80
16134;DHT22;8172;45.018;5.972;2022-07-29T20:04:37;19.60;69.80
16134;DHT22;8172;45.018;5.972;2022-07-29T20:09:44;19.60;70.00
16134;DHT22;8172;45.018;5.972;2022-07-29T20:14:52;19.70;70.00
16134;DHT22;8172;45.018;5.972;2022-07-29T20:19:59;19.70;69.80
16134;DHT22;8172;45.018;5.972;2022-07-29T20:25:07;19.70;69.80
16134;DHT22;8172;45.018;5.972;2022-07-29T20:30:14;19.70;69.80
16134;DHT22;8172;45.018;5.972;2022-07-29T20:35:22;19.70;69.80
16134;DHT22;8172;45.018;5.972;2022-07-29T20:40:29;19.70;69.70
16134;DHT22;8172;45.018;5.972;2022-07-29T20:45:36;19.60;69.60
16134;DHT22;8172;45.018;5.972;2022-07-29T20:50:44;19.60;69.50
16134;DHT22;8172;45.018;5.972;2022-07-29T20:55:53;19.60;69.40
16134;DHT22;8172;45.018;5.972;2022-07-29T21:01:00;19.50;69.30
16134;DHT22;8172;45.018;5.972;2022-07-29T21:06:07;19.50;69.50
16134;DHT22;8172;45.018;5.972;2022-07-29T21:11:16;19.40;69.40
16134;DHT22;8172;45.018;5.972;2022-07-29T21:16:24;19.30;69.50
16134;DHT22;8172;45.018;5.972;2022-07-29T21:21:34;19.30;69.60
16134;DHT22;8172;45.018;5.972;2022-07-29T21:26:40;19.20;69.60
16134;DHT22;8172;45.018;5.972;2022-07-29T21:31:49;19.10;69.50
16134;DHT22;8172;45.018;5.972;2022-07-29T21:36:56;19.10;69.60
16134;DHT22;8172;45.018;5.972;2022-07-29T21:42:03;19.00;69.60
16134;DHT22;8172;45.018;5.972;2022-07-29T21:47:12;19.00;69.70
16134;DHT22;8172;45.018;5.972;2022-07-29T21:52:19;18.90;69.70
16134;DHT22;8172;45.018;5.972;2022-07-29T21:57:25;18.90;69.70
16134;DHT22;8172;45.018;5.972;2022-07-29T22:02:32;18.90;69.70
16134;DHT22;8172;45.018;5.972;2022-07-29T22:07:40;18.80;69.60
16134;DHT22;8172;45.018;5.972;2022-07-29T22:12:50;18.70;69.40
16134;DHT22;8172;45.018;5.972;2022-07-29T22:18:00;18.70;69.30
16134;DHT22;8172;45.018;5.972;2022-07-29T22:23:07;18.70;69.10
16134;DHT22;8172;45.018;5.972;2022-07-29T22:28:14;18.60;69.20
16134;DHT22;8172;45.018;5.972;2022-07-29T22:33:21;18.50;69.10
16134;DHT22;8172;45.018;5.972;2022-07-29T22:38:28;18.50;69.20
16134;DHT22;8172;45.018;5.972;2022-07-29T22:43:37;18.50;69.10
16134;DHT22;8172;45.018;5.972;2022-07-29T22:48:43;18.50;69.10
16134;DHT22;8172;45.018;5.972;2022-07-29T22:53:50;18.50;69.10
16134;DHT22;8172;45.018;5.972;2022-07-29T22:58:57;18.50;69.10
16134;DHT22;8172;45.018;5.972;2022-07-29T23:04:05;18.50;69.10
16134;DHT22;8172;45.018;5.972;2022-07-29T23:09:12;18.50;69.10
16134;DHT22;8172;45.018;5.972;2022-07-29T23:14:19;18.40;69.20
16134;DHT22;8172;45.018;5.972;2022-07-29T23:19:26;18.40;69.10
16134;DHT22;8172;45.018;5.972;2022-07-29T23:24:33;18.40;69.20
16134;DHT22;8172;45.018;5.972;2022-07-29T23:29:40;18.40;69.30
16134;DHT22;8172;45.018;5.972;2022-07-29T23:34:47;18.40;69.20
16134;DHT22;8172;45.018;5.972;2022-07-29T23:39:53;18.40;69.30
16134;DHT22;8172;45.018;5.972;2022-07-29T23:45:00;18.40;69.30
16134;DHT22;8172;45.018;5.972;2022-07-29T23:50:08;18.40;69.30
16134;DHT22;8172;45.018;5.972;2022-07-29T23:55:17;18.30;69.40
